sensor_id;sensor_type;location;lat;lon;timestamp;temperature;humidity
69335;SHT31;56477;52.742;15.242;2023-03-23T00:00:00;12.07;74.04
69335;SHT31;56477;52.742;15.242;2023-03-23T00:02:31;12.07;73.98
69335;SHT31;56477;52.742;15.242;2023-03-23T00:05:02;12.03;74.16
69335;SHT31;56477;52.742;15.242;2023-03-23T00:07:29;11.97;74.37
69335;SHT31;56477;52.742;15.242;2023-03-23T00:09:55;11.97;74.36
69335;SHT31;56477;52.742;15.242;2023-03-23T00:12:23;11.99;74.23
69335;SHT31;56477;52.742;15.242;2023-03-23T00:14:55;11.96;74.27
69335;SHT31;56477;52.742;15.242;2023-03-23T00:17:21;12.02;74.27
69335;SHT31;56477;52.742;15.242;2023-03-23T00:19:49;11.99;74.13
69335;SHT31;56477;52.742;15.242;2023-03-23T00:22:16;12.06;74.02
69335;SHT31;56477;52.742;15.242;2023-03-23T00:24:47;12.02;73.98
69335;SHT31;56477;52.742;15.242;2023-03-23T00:27:16;12.04;73.93
69335;SHT31;56477;52.742;15.242;2023-03-23T00:29:43;12.07;73.90
69335;SHT31;56477;52.742;15.242;2023-03-23T00:32:12;12.07;73.88
69335;SHT31;56477;52.742;15.242;2023-03-23T00:34:40;12.02;73.98
69335;SHT31;56477;52.742;15.242;2023-03-23T00:37:08;11.99;74.13
69335;SHT31;56477;52.742;15.242;2023-03-23T00:39:38;11.95;74.19
69335;SHT31;56477;52.742;15.242;2023-03-23T00:42:04;11.85;74.58
69335;SHT31;56477;52.742;15.242;2023-03-23T00:44:32;11.81;74.57
69335;SHT31;56477;52.742;15.242;2023-03-23T00:47:00;11.76;74.87
69335;SHT31;56477;52.742;15.242;2023-03-23T00:49:27;11.69;75.14
69335;SHT31;56477;52.742;15.242;2023-03-23T00:51:55;11.64;75.48
69335;SHT31;56477;52.742;15.242;2023-03-23T00:54:22;11.54;75.68
69335;SHT31;56477;52.742;15.242;2023-03-23T00:56:48;11.54;75.84
69335;SHT31;56477;52.742;15.242;2023-03-23T00:59:15;11.54;75.74
69335;SHT31;56477;52.742;15.242;2023-03-23T01:01:41;11.50;75.70
69335;SHT31;56477;52.742;15.242;2023-03-23T01:04:08;11.44;75.93
69335;SHT31;56477;52.742;15.242;2023-03-23T01:06:36;11.39;76.09
69335;SHT31;56477;52.742;15.242;2023-03-23T01:09:15;11.35;76.23
69335;SHT31;56477;52.742;15.242;2023-03-23T01:11:45;11.42;75.96
69335;SHT31;56477;52.742;15.242;2023-03-23T01:14:14;11.37;76.17
69335;SHT31;56477;52.742;15.242;2023-03-23T01:16:41;11.35;76.07
69335;SHT31;56477;52.742;15.242;2023-03-23T01:19:07;11.37;75.96
69335;SHT31;56477;52.742;15.242;2023-03-23T01:21:32;11.38;75.86
69335;SHT31;56477;52.742;15.242;2023-03-23T01:23:59;11.32;75.87
69335;SHT31;56477;52.742;15.242;2023-03-23T01:26:27;11.27;76.03
69335;SHT31;56477;52.742;15.242;2023-03-23T01:28:53;11.30;75.96
69335;SHT31;56477;52.742;15.242;2023-03-23T01:31:21;11.24;75.94
69335;SHT31;56477;52.742;15.242;2023-03-23T01:33:48;11.27;75.84
69335;SHT31;56477;52.742;15.242;2023-03-23T01:36:19;11.28;75.73
69335;SHT31;56477;52.742;15.242;2023-03-23T01:38:47;11.28;75.77
69335;SHT31;56477;52.742;15.242;2023-03-23T01:41:14;11.24;75.76
69335;SHT31;56477;52.742;15.242;2023-03-23T01:44:05;11.21;75.84
69335;SHT31;56477;52.742;15.242;2023-03-23T01:46:34;11.20;75.89
69335;SHT31;56477;52.742;15.242;2023-03-23T01:49:09;11.16;76.11
69335;SHT31;56477;52.742;15.242;2023-03-23T01:51:40;11.10;76.50
69335;SHT31;56477;52.742;15.242;2023-03-23T01:54:10;11.07;76.59
69335;SHT31;56477;52.742;15.242;2023-03-23T01:56:41;11.00;76.72
69335;SHT31;56477;52.742;15.242;2023-03-23T01:59:11;10.97;76.87
69335;SHT31;56477;52.742;15.242;2023-03-23T02:01:38;11.01;76.73
69335;SHT31;56477;52.742;15.242;2023-03-23T02:04:14;10.97;76.89
69335;SHT31;56477;52.742;15.242;2023-03-23T02:06:43;10.97;76.75
69335;SHT31;56477;52.742;15.242;2023-03-23T02:09:11;10.93;76.83
69335;SHT31;56477;52.742;15.242;2023-03-23T02:11:39;10.92;76.91
69335;SHT31;56477;52.742;15.242;2023-03-23T02:14:05;10.84;77.30
69335;SHT31;56477;52.742;15.242;2023-03-23T02:16:47;10.83;77.25
69335;SHT31;56477;52.742;15.242;2023-03-23T02:35:01;10.66;77.96
69335;SHT31;56477;52.742;15.242;2023-03-23T02:37:38;10.67;77.63
69335;SHT31;56477;52.742;15.242;2023-03-23T02:40:14;10.66;77.63
69335;SHT31;56477;52.742;15.242;2023-03-23T02:42:48;10.65;77.76
69335;SHT31;56477;52.742;15.242;2023-03-23T02:45:20;10.62;77.77
69335;SHT31;56477;52.742;15.242;2023-03-23T02:47:49;10.60;77.78
69335;SHT31;56477;52.742;15.242;2023-03-23T02:50:16;10.63;77.70
69335;SHT31;56477;52.742;15.242;2023-03-23T02:52:45;10.65;77.51
69335;SHT31;56477;52.742;15.242;2023-03-23T02:55:13;10.63;77.58
69335;SHT31;56477;52.742;15.242;2023-03-23T02:57:39;10.66;77.00
69335;SHT31;56477;52.742;15.242;2023-03-23T03:00:10;10.69;76.67
69335;SHT31;56477;52.742;15.242;2023-03-23T03:02:48;10.72;76.82
69335;SHT31;56477;52.742;15.242;2023-03-23T03:19:18;10.59;76.85
69335;SHT31;56477;52.742;15.242;2023-03-23T03:21:46;10.59;76.92
69335;SHT31;56477;52.742;15.242;2023-03-23T03:24:17;10.56;77.10
69335;SHT31;56477;52.742;15.242;2023-03-23T03:26:46;10.52;77.31
69335;SHT31;56477;52.742;15.242;2023-03-23T03:29:17;10.45;77.42
69335;SHT31;56477;52.742;15.242;2023-03-23T03:31:45;10.41;77.30
69335;SHT31;56477;52.742;15.242;2023-03-23T03:34:14;10.49;77.04
69335;SHT31;56477;52.742;15.242;2023-03-23T03:36:45;10.48;77.14
69335;SHT31;56477;52.742;15.242;2023-03-23T03:39:13;10.46;77.01
69335;SHT31;56477;52.742;15.242;2023-03-23T03:41:41;10.45;77.25
69335;SHT31;56477;52.742;15.242;2023-03-23T03:44:07;10.39;77.40
69335;SHT31;56477;52.742;15.242;2023-03-23T03:46:35;10.37;77.51
69335;SHT31;56477;52.742;15.242;2023-03-23T03:49:03;10.35;77.53
69335;SHT31;56477;52.742;15.242;2023-03-23T03:51:30;10.34;77.62
69335;SHT31;56477;52.742;15.242;2023-03-23T03:53:56;10.32;77.74
69335;SHT31;56477;52.742;15.242;2023-03-23T03:56:23;10.29;77.69
69335;SHT31;56477;52.742;15.242;2023-03-23T03:58:51;10.34;77.46
69335;SHT31;56477;52.742;15.242;2023-03-23T04:01:20;10.35;77.56
69335;SHT31;56477;52.742;15.242;2023-03-23T04:03:50;10.29;77.72
69335;SHT31;56477;52.742;15.242;2023-03-23T04:06:17;10.24;78.08
69335;SHT31;56477;52.742;15.242;2023-03-23T04:08:43;10.19;78.24
69335;SHT31;56477;52.742;15.242;2023-03-23T04:11:11;10.14;78.41
69335;SHT31;56477;52.742;15.242;2023-03-23T04:13:38;10.12;78.48
69335;SHT31;56477;52.742;15.242;2023-03-23T04:16:04;10.04;78.74
69335;SHT31;56477;52.742;15.242;2023-03-23T04:18:32;10.00;78.89
69335;SHT31;56477;52.742;15.242;2023-03-23T04:21:01;9.98;78.86
69335;SHT31;56477;52.742;15.242;2023-03-23T04:23:28;9.97;78.90
69335;SHT31;56477;52.742;15.242;2023-03-23T04:25:56;9.93;79.16
69335;SHT31;56477;52.742;15.242;2023-03-23T04:28:24;9.93;79.20
69335;SHT31;56477;52.742;15.242;2023-03-23T04:30:52;9.88;79.44
69335;SHT31;56477;52.742;15.242;2023-03-23T04:33:25;9.87;79.44
69335;SHT31;56477;52.742;15.242;2023-03-23T04:35:53;9.90;79.33
69335;SHT31;56477;52.742;15.242;2023-03-23T04:38:21;9.93;79.09
69335;SHT31;56477;52.742;15.242;2023-03-23T04:40:50;9.98;78.94
69335;SHT31;56477;52.742;15.242;2023-03-23T04:43:18;10.04;78.71
69335;SHT31;56477;52.742;15.242;2023-03-23T04:45:51;10.08;78.64
69335;SHT31;56477;52.742;15.242;2023-03-23T04:48:18;10.14;78.46
69335;SHT31;56477;52.742;15.242;2023-03-23T04:50:45;10.18;78.29
69335;SHT31;56477;52.742;15.242;2023-03-23T04:53:11;10.22;78.19
69335;SHT31;56477;52.742;15.242;2023-03-23T04:55:37;10.25;77.78
69335;SHT31;56477;52.742;15.242;2023-03-23T04:58:04;10.32;77.74
69335;SHT31;56477;52.742;15.242;2023-03-23T05:00:34;10.32;77.65
69335;SHT31;56477;52.742;15.242;2023-03-23T05:03:01;10.32;77.81
69335;SHT31;56477;52.742;15.242;2023-03-23T05:05:27;10.29;77.83
69335;SHT31;56477;52.742;15.242;2023-03-23T05:07:55;10.29;77.66
69335;SHT31;56477;52.742;15.242;2023-03-23T05:10:21;10.29;77.79
69335;SHT31;56477;52.742;15.242;2023-03-23T05:12:47;10.31;77.67
69335;SHT31;56477;52.742;15.242;2023-03-23T05:15:15;10.35;77.30
69335;SHT31;56477;52.742;15.242;2023-03-23T05:17:42;10.34;77.55
69335;SHT31;56477;52.742;15.242;2023-03-23T05:20:13;10.34;77.76
69335;SHT31;56477;52.742;15.242;2023-03-23T05:22:41;10.31;77.96
69335;SHT31;56477;52.742;15.242;2023-03-23T05:25:08;10.28;78.08
69335;SHT31;56477;52.742;15.242;2023-03-23T05:27:35;10.37;77.58
69335;SHT31;56477;52.742;15.242;2023-03-23T05:30:02;10.44;77.15
69335;SHT31;56477;52.742;15.242;2023-03-23T05:32:28;10.44;77.62
69335;SHT31;56477;52.742;15.242;2023-03-23T05:34:57;10.45;77.28
69335;SHT31;56477;52.742;15.242;2023-03-23T05:37:24;10.48;77.24
69335;SHT31;56477;52.742;15.242;2023-03-23T05:39:50;10.50;77.13
69335;SHT31;56477;52.742;15.242;2023-03-23T05:42:23;10.53;77.06
69335;SHT31;56477;52.742;15.242;2023-03-23T05:44:49;10.56;77.25
69335;SHT31;56477;52.742;15.242;2023-03-23T05:47:16;10.59;76.76
69335;SHT31;56477;52.742;15.242;2023-03-23T05:49:42;10.66;76.65
69335;SHT31;56477;52.742;15.242;2023-03-23T05:52:08;10.73;76.39
69335;SHT31;56477;52.742;15.242;2023-03-23T05:54:34;10.87;75.84
69335;SHT31;56477;52.742;15.242;2023-03-23T05:57:01;10.90;75.59
69335;SHT31;56477;52.742;15.242;2023-03-23T05:59:27;10.99;75.43
69335;SHT31;56477;52.742;15.242;2023-03-23T06:01:53;11.04;75.09
69335;SHT31;56477;52.742;15.242;2023-03-23T06:04:19;11.13;75.19
69335;SHT31;56477;52.742;15.242;2023-03-23T06:06:47;11.18;74.77
69335;SHT31;56477;52.742;15.242;2023-03-23T06:09:12;11.21;74.82
69335;SHT31;56477;52.742;15.242;2023-03-23T06:11:38;11.20;74.72
69335;SHT31;56477;52.742;15.242;2023-03-23T06:14:04;11.21;74.68
69335;SHT31;56477;52.742;15.242;2023-03-23T06:16:30;11.21;74.71
69335;SHT31;56477;52.742;15.242;2023-03-23T06:18:56;11.20;74.78
69335;SHT31;56477;52.742;15.242;2023-03-23T06:21:22;11.20;74.87
69335;SHT31;56477;52.742;15.242;2023-03-23T06:23:48;11.24;74.84
69335;SHT31;56477;52.742;15.242;2023-03-23T06:26:18;11.20;74.91
69335;SHT31;56477;52.742;15.242;2023-03-23T06:28:44;11.27;74.73
69335;SHT31;56477;52.742;15.242;2023-03-23T06:31:10;11.20;75.35
69335;SHT31;56477;52.742;15.242;2023-03-23T06:33:37;11.23;75.03
69335;SHT31;56477;52.742;15.242;2023-03-23T06:36:04;11.28;74.64
69335;SHT31;56477;52.742;15.242;2023-03-23T06:38:30;11.32;74.68
69335;SHT31;56477;52.742;15.242;2023-03-23T06:40:57;11.35;74.59
69335;SHT31;56477;52.742;15.242;2023-03-23T06:43:23;11.38;74.87
69335;SHT31;56477;52.742;15.242;2023-03-23T06:45:50;11.39;74.86
69335;SHT31;56477;52.742;15.242;2023-03-23T06:48:17;11.45;74.67
69335;SHT31;56477;52.742;15.242;2023-03-23T06:50:44;11.55;74.25
69335;SHT31;56477;52.742;15.242;2023-03-23T06:53:10;11.58;74.51
69335;SHT31;56477;52.742;15.242;2023-03-23T06:55:36;11.71;74.27
69335;SHT31;56477;52.742;15.242;2023-03-23T06:58:06;11.74;74.76
69335;SHT31;56477;52.742;15.242;2023-03-23T07:00:33;11.74;74.55
69335;SHT31;56477;52.742;15.242;2023-03-23T07:02:58;11.79;74.83
69335;SHT31;56477;52.742;15.242;2023-03-23T07:05:25;11.82;74.35
69335;SHT31;56477;52.742;15.242;2023-03-23T07:07:51;11.89;74.25
69335;SHT31;56477;52.742;15.242;2023-03-23T07:10:17;11.96;74.52
69335;SHT31;56477;52.742;15.242;2023-03-23T07:12:43;11.93;74.57
69335;SHT31;56477;52.742;15.242;2023-03-23T07:15:09;11.95;74.58
69335;SHT31;56477;52.742;15.242;2023-03-23T07:17:37;11.90;75.14
69335;SHT31;56477;52.742;15.242;2023-03-23T07:20:04;11.93;75.78
69335;SHT31;56477;52.742;15.242;2023-03-23T07:22:30;11.76;76.26
69335;SHT31;56477;52.742;15.242;2023-03-23T07:24:56;11.69;77.12
69335;SHT31;56477;52.742;15.242;2023-03-23T07:27:22;11.65;77.86
69335;SHT31;56477;52.742;15.242;2023-03-23T07:29:49;11.61;79.14
69335;SHT31;56477;52.742;15.242;2023-03-23T07:32:14;11.55;80.22
69335;SHT31;56477;52.742;15.242;2023-03-23T07:34:41;11.50;79.45
69335;SHT31;56477;52.742;15.242;2023-03-23T07:37:07;11.35;80.45
69335;SHT31;56477;52.742;15.242;2023-03-23T07:39:33;11.30;81.55
69335;SHT31;56477;52.742;15.242;2023-03-23T07:41:59;11.11;83.18
69335;SHT31;56477;52.742;15.242;2023-03-23T07:44:25;11.06;83.37
69335;SHT31;56477;52.742;15.242;2023-03-23T07:46:52;11.01;84.44
69335;SHT31;56477;52.742;15.242;2023-03-23T07:49:18;10.93;83.53
69335;SHT31;56477;52.742;15.242;2023-03-23T07:51:45;10.93;85.32
69335;SHT31;56477;52.742;15.242;2023-03-23T07:54:11;10.80;85.67
69335;SHT31;56477;52.742;15.242;2023-03-23T07:56:38;10.72;86.63
69335;SHT31;56477;52.742;15.242;2023-03-23T07:59:06;10.65;87.21
69335;SHT31;56477;52.742;15.242;2023-03-23T08:01:33;10.59;87.42
69335;SHT31;56477;52.742;15.242;2023-03-23T08:03:59;10.58;87.88
69335;SHT31;56477;52.742;15.242;2023-03-23T08:06:26;10.52;88.39
69335;SHT31;56477;52.742;15.242;2023-03-23T08:08:52;10.56;87.55
69335;SHT31;56477;52.742;15.242;2023-03-23T08:11:18;10.58;88.14
69335;SHT31;56477;52.742;15.242;2023-03-23T08:13:46;10.49;88.57
69335;SHT31;56477;52.742;15.242;2023-03-23T08:16:12;10.50;88.68
69335;SHT31;56477;52.742;15.242;2023-03-23T08:18:39;10.50;88.89
69335;SHT31;56477;52.742;15.242;2023-03-23T08:21:06;10.53;89.12
69335;SHT31;56477;52.742;15.242;2023-03-23T08:23:35;10.63;89.01
69335;SHT31;56477;52.742;15.242;2023-03-23T08:26:06;10.63;89.30
69335;SHT31;56477;52.742;15.242;2023-03-23T08:28:34;10.62;89.72
69335;SHT31;56477;52.742;15.242;2023-03-23T08:31:00;10.56;89.33
69335;SHT31;56477;52.742;15.242;2023-03-23T08:33:32;10.59;90.19
69335;SHT31;56477;52.742;15.242;2023-03-23T08:35:59;10.56;90.05
69335;SHT31;56477;52.742;15.242;2023-03-23T08:38:27;10.60;90.11
69335;SHT31;56477;52.742;15.242;2023-03-23T08:41:04;10.59;90.27
69335;SHT31;56477;52.742;15.242;2023-03-23T08:43:31;10.63;90.57
69335;SHT31;56477;52.742;15.242;2023-03-23T08:45:58;10.72;90.10
69335;SHT31;56477;52.742;15.242;2023-03-23T08:48:25;10.76;90.04
69335;SHT31;56477;52.742;15.242;2023-03-23T08:50:51;10.56;89.93
69335;SHT31;56477;52.742;15.242;2023-03-23T08:53:18;10.67;90.57
69335;SHT31;56477;52.742;15.242;2023-03-23T08:55:47;10.75;90.12
69335;SHT31;56477;52.742;15.242;2023-03-23T08:58:13;10.95;89.88
69335;SHT31;56477;52.742;15.242;2023-03-23T09:00:39;11.14;89.13
69335;SHT31;56477;52.742;15.242;2023-03-23T09:03:05;11.06;90.38
69335;SHT31;56477;52.742;15.242;2023-03-23T09:05:31;11.11;89.55
69335;SHT31;56477;52.742;15.242;2023-03-23T09:07:58;11.00;89.89
69335;SHT31;56477;52.742;15.242;2023-03-23T09:10:26;10.93;89.48
69335;SHT31;56477;52.742;15.242;2023-03-23T09:12:53;10.92;90.43
69335;SHT31;56477;52.742;15.242;2023-03-23T09:15:20;10.87;90.37
69335;SHT31;56477;52.742;15.242;2023-03-23T09:17:49;10.96;90.26
69335;SHT31;56477;52.742;15.242;2023-03-23T09:20:19;11.08;89.95
69335;SHT31;56477;52.742;15.242;2023-03-23T09:22:49;11.16;89.97
69335;SHT31;56477;52.742;15.242;2023-03-23T09:25:16;11.16;89.85
69335;SHT31;56477;52.742;15.242;2023-03-23T09:27:45;11.21;89.87
69335;SHT31;56477;52.742;15.242;2023-03-23T09:30:13;11.18;89.87
69335;SHT31;56477;52.742;15.242;2023-03-23T09:32:45;11.28;90.23
69335;SHT31;56477;52.742;15.242;2023-03-23T09:35:11;11.31;90.25
69335;SHT31;56477;52.742;15.242;2023-03-23T09:37:40;11.27;90.08
69335;SHT31;56477;52.742;15.242;2023-03-23T09:40:10;11.30;89.70
69335;SHT31;56477;52.742;15.242;2023-03-23T09:45:39;11.34;89.37
69335;SHT31;56477;52.742;15.242;2023-03-23T09:50:35;11.48;88.99
69335;SHT31;56477;52.742;15.242;2023-03-23T09:53:26;11.50;88.86
69335;SHT31;56477;52.742;15.242;2023-03-23T09:55:52;11.62;88.88
69335;SHT31;56477;52.742;15.242;2023-03-23T10:03:27;11.74;88.50
69335;SHT31;56477;52.742;15.242;2023-03-23T10:05:56;11.82;88.50
69335;SHT31;56477;52.742;15.242;2023-03-23T10:08:25;11.86;88.59
69335;SHT31;56477;52.742;15.242;2023-03-23T10:11:16;12.04;88.06
69335;SHT31;56477;52.742;15.242;2023-03-23T10:14:21;12.06;88.08
69335;SHT31;56477;52.742;15.242;2023-03-23T10:22:39;13.33;84.49
69335;SHT31;56477;52.742;15.242;2023-03-23T10:28:08;13.50;83.36
69335;SHT31;56477;52.742;15.242;2023-03-23T10:30:39;13.70;83.85
69335;SHT31;56477;52.742;15.242;2023-03-23T10:33:11;13.46;83.17
69335;SHT31;56477;52.742;15.242;2023-03-23T10:35:51;13.18;84.59
69335;SHT31;56477;52.742;15.242;2023-03-23T10:41:30;12.99;85.37
69335;SHT31;56477;52.742;15.242;2023-03-23T10:43:56;13.09;84.11
69335;SHT31;56477;52.742;15.242;2023-03-23T10:46:45;13.13;83.83
69335;SHT31;56477;52.742;15.242;2023-03-23T10:49:59;13.43;82.78
69335;SHT31;56477;52.742;15.242;2023-03-23T10:52:37;13.47;81.99
69335;SHT31;56477;52.742;15.242;2023-03-23T10:55:19;13.91;82.13
69335;SHT31;56477;52.742;15.242;2023-03-23T10:58:09;13.80;81.80
69335;SHT31;56477;52.742;15.242;2023-03-23T11:00:44;14.08;79.54
69335;SHT31;56477;52.742;15.242;2023-03-23T11:08:16;14.11;79.44
69335;SHT31;56477;52.742;15.242;2023-03-23T11:10:49;13.61;80.48
69335;SHT31;56477;52.742;15.242;2023-03-23T11:13:17;13.61;80.89
69335;SHT31;56477;52.742;15.242;2023-03-23T11:15:46;13.68;80.18
69335;SHT31;56477;52.742;15.242;2023-03-23T11:20:48;13.75;80.51
69335;SHT31;56477;52.742;15.242;2023-03-23T11:23:21;13.84;79.67
69335;SHT31;56477;52.742;15.242;2023-03-23T11:26:20;13.88;80.34
69335;SHT31;56477;52.742;15.242;2023-03-23T11:29:16;14.08;78.54
69335;SHT31;56477;52.742;15.242;2023-03-23T11:31:43;14.39;77.57
69335;SHT31;56477;52.742;15.242;2023-03-23T11:34:14;14.35;78.59
69335;SHT31;56477;52.742;15.242;2023-03-23T11:36:51;14.38;77.87
69335;SHT31;56477;52.742;15.242;2023-03-23T11:39:25;14.43;78.55
69335;SHT31;56477;52.742;15.242;2023-03-23T11:41:52;14.17;77.67
69335;SHT31;56477;52.742;15.242;2023-03-23T11:44:21;14.30;77.99
69335;SHT31;56477;52.742;15.242;2023-03-23T11:46:50;14.19;77.82
69335;SHT31;56477;52.742;15.242;2023-03-23T11:49:29;14.07;78.39
69335;SHT31;56477;52.742;15.242;2023-03-23T11:52:09;14.24;77.92
69335;SHT31;56477;52.742;15.242;2023-03-23T11:54:42;14.04;77.09
69335;SHT31;56477;52.742;15.242;2023-03-23T11:57:11;14.18;77.27
69335;SHT31;56477;52.742;15.242;2023-03-23T11:59:39;14.26;77.14
69335;SHT31;56477;52.742;15.242;2023-03-23T12:02:52;14.50;76.89
69335;SHT31;56477;52.742;15.242;2023-03-23T12:14:06;14.83;75.30
69335;SHT31;56477;52.742;15.242;2023-03-23T12:22:38;14.56;75.49
69335;SHT31;56477;52.742;15.242;2023-03-23T12:30:27;14.56;75.10
69335;SHT31;56477;52.742;15.242;2023-03-23T12:33:23;14.52;75.08
69335;SHT31;56477;52.742;15.242;2023-03-23T12:35:59;14.45;75.38
69335;SHT31;56477;52.742;15.242;2023-03-23T12:38:44;14.66;75.36
69335;SHT31;56477;52.742;15.242;2023-03-23T12:41:29;14.60;74.70
69335;SHT31;56477;52.742;15.242;2023-03-23T12:44:00;14.49;75.18
69335;SHT31;56477;52.742;15.242;2023-03-23T12:46:43;14.46;74.70
69335;SHT31;56477;52.742;15.242;2023-03-23T12:51:58;14.60;75.16
69335;SHT31;56477;52.742;15.242;2023-03-23T12:54:35;14.63;74.40
69335;SHT31;56477;52.742;15.242;2023-03-23T13:02:34;14.70;73.72
69335;SHT31;56477;52.742;15.242;2023-03-23T13:07:45;14.91;73.63
69335;SHT31;56477;52.742;15.242;2023-03-23T13:10:22;14.97;73.72
69335;SHT31;56477;52.742;15.242;2023-03-23T13:12:50;15.08;73.73
69335;SHT31;56477;52.742;15.242;2023-03-23T13:15:39;15.11;72.80
69335;SHT31;56477;52.742;15.242;2023-03-23T13:18:30;15.12;72.32
69335;SHT31;56477;52.742;15.242;2023-03-23T13:21:31;15.15;70.42
69335;SHT31;56477;52.742;15.242;2023-03-23T13:24:08;15.11;70.98
69335;SHT31;56477;52.742;15.242;2023-03-23T13:26:42;15.28;70.18
69335;SHT31;56477;52.742;15.242;2023-03-23T13:29:13;15.05;70.64
69335;SHT31;56477;52.742;15.242;2023-03-23T13:31:41;15.20;69.93
69335;SHT31;56477;52.742;15.242;2023-03-23T13:34:24;15.56;68.75
69335;SHT31;56477;52.742;15.242;2023-03-23T13:37:19;15.56;69.28
69335;SHT31;56477;52.742;15.242;2023-03-23T13:39:55;15.34;69.14
69335;SHT31;56477;52.742;15.242;2023-03-23T13:42:27;15.24;69.59
69335;SHT31;56477;52.742;15.242;2023-03-23T13:45:06;15.14;70.84
69335;SHT31;56477;52.742;15.242;2023-03-23T13:47:38;15.25;69.93
69335;SHT31;56477;52.742;15.242;2023-03-23T14:00:47;15.35;69.34
69335;SHT31;56477;52.742;15.242;2023-03-23T14:03:26;15.51;68.21
69335;SHT31;56477;52.742;15.242;2023-03-23T14:08:37;16.52;66.64
69335;SHT31;56477;52.742;15.242;2023-03-23T14:14:06;15.72;68.29
69335;SHT31;56477;52.742;15.242;2023-03-23T14:16:40;15.78;68.63
69335;SHT31;56477;52.742;15.242;2023-03-23T14:19:33;16.48;64.17
69335;SHT31;56477;52.742;15.242;2023-03-23T14:22:02;16.69;64.08
69335;SHT31;56477;52.742;15.242;2023-03-23T14:24:31;16.76;63.64
69335;SHT31;56477;52.742;15.242;2023-03-23T14:27:08;16.50;64.14
69335;SHT31;56477;52.742;15.242;2023-03-23T14:29:35;16.62;64.44
69335;SHT31;56477;52.742;15.242;2023-03-23T14:32:01;16.44;65.27
69335;SHT31;56477;52.742;15.242;2023-03-23T14:34:31;16.86;63.33
69335;SHT31;56477;52.742;15.242;2023-03-23T14:36:58;16.57;63.97
69335;SHT31;56477;52.742;15.242;2023-03-23T14:39:30;17.09;62.33
69335;SHT31;56477;52.742;15.242;2023-03-23T14:42:01;15.85;65.10
69335;SHT31;56477;52.742;15.242;2023-03-23T14:44:34;15.97;65.06
69335;SHT31;56477;52.742;15.242;2023-03-23T14:47:04;16.00;65.49
69335;SHT31;56477;52.742;15.242;2023-03-23T14:49:36;15.79;66.19
69335;SHT31;56477;52.742;15.242;2023-03-23T14:52:12;15.75;66.37
69335;SHT31;56477;52.742;15.242;2023-03-23T14:54:40;15.70;66.78
69335;SHT31;56477;52.742;15.242;2023-03-23T14:59:42;15.49;66.41
69335;SHT31;56477;52.742;15.242;2023-03-23T15:02:24;15.25;66.96
69335;SHT31;56477;52.742;15.242;2023-03-23T15:05:02;15.23;67.50
69335;SHT31;56477;52.742;15.242;2023-03-23T15:07:33;15.18;67.46
69335;SHT31;56477;52.742;15.242;2023-03-23T15:10:01;15.04;68.04
69335;SHT31;56477;52.742;15.242;2023-03-23T15:12:30;15.01;68.05
69335;SHT31;56477;52.742;15.242;2023-03-23T15:14:59;14.98;68.33
69335;SHT31;56477;52.742;15.242;2023-03-23T15:17:28;14.98;68.00
69335;SHT31;56477;52.742;15.242;2023-03-23T15:19:55;15.03;68.20
69335;SHT31;56477;52.742;15.242;2023-03-23T15:22:24;15.07;68.26
69335;SHT31;56477;52.742;15.242;2023-03-23T15:25:16;15.08;68.32
69335;SHT31;56477;52.742;15.242;2023-03-23T15:27:44;14.98;69.00
69335;SHT31;56477;52.742;15.242;2023-03-23T15:32:51;14.88;68.78
69335;SHT31;56477;52.742;15.242;2023-03-23T15:35:23;14.93;68.89
69335;SHT31;56477;52.742;15.242;2023-03-23T15:37:58;14.94;68.63
69335;SHT31;56477;52.742;15.242;2023-03-23T15:40:27;15.89;66.05
69335;SHT31;56477;52.742;15.242;2023-03-23T15:48:22;17.31;61.91
69335;SHT31;56477;52.742;15.242;2023-03-23T15:50:49;16.88;62.80
69335;SHT31;56477;52.742;15.242;2023-03-23T15:53:30;17.00;63.05
69335;SHT31;56477;52.742;15.242;2023-03-23T15:55:59;16.96;63.37
69335;SHT31;56477;52.742;15.242;2023-03-23T15:58:26;17.24;62.87
69335;SHT31;56477;52.742;15.242;2023-03-23T16:00:53;16.48;64.51
69335;SHT31;56477;52.742;15.242;2023-03-23T16:03:27;16.98;63.25
69335;SHT31;56477;52.742;15.242;2023-03-23T16:05:56;16.51;63.71
69335;SHT31;56477;52.742;15.242;2023-03-23T16:08:25;15.63;67.07
69335;SHT31;56477;52.742;15.242;2023-03-23T16:10:51;15.42;67.01
69335;SHT31;56477;52.742;15.242;2023-03-23T16:13:17;15.11;67.70
69335;SHT31;56477;52.742;15.242;2023-03-23T16:15:45;14.91;68.40
69335;SHT31;56477;52.742;15.242;2023-03-23T16:18:18;14.81;68.74
69335;SHT31;56477;52.742;15.242;2023-03-23T16:20:46;14.73;68.93
69335;SHT31;56477;52.742;15.242;2023-03-23T16:23:12;14.66;69.56
69335;SHT31;56477;52.742;15.242;2023-03-23T16:25:38;14.60;69.55
69335;SHT31;56477;52.742;15.242;2023-03-23T16:28:04;14.60;69.86
69335;SHT31;56477;52.742;15.242;2023-03-23T16:30:33;14.62;70.16
69335;SHT31;56477;52.742;15.242;2023-03-23T16:33:00;14.55;70.53
69335;SHT31;56477;52.742;15.242;2023-03-23T16:35:26;14.56;70.72
69335;SHT31;56477;52.742;15.242;2023-03-23T16:37:54;14.50;71.28
69335;SHT31;56477;52.742;15.242;2023-03-23T16:40:21;14.42;71.67
69335;SHT31;56477;52.742;15.242;2023-03-23T16:42:47;14.38;71.83
69335;SHT31;56477;52.742;15.242;2023-03-23T16:45:14;14.39;71.92
69335;SHT31;56477;52.742;15.242;2023-03-23T16:47:40;14.36;71.87
69335;SHT31;56477;52.742;15.242;2023-03-23T16:50:10;14.35;72.02
69335;SHT31;56477;52.742;15.242;2023-03-23T16:52:42;14.36;72.22
69335;SHT31;56477;52.742;15.242;2023-03-23T16:55:09;14.52;71.60
69335;SHT31;56477;52.742;15.242;2023-03-23T16:57:36;14.63;71.48
69335;SHT31;56477;52.742;15.242;2023-03-23T17:00:06;14.52;71.85
69335;SHT31;56477;52.742;15.242;2023-03-23T17:02:34;14.39;71.97
69335;SHT31;56477;52.742;15.242;2023-03-23T17:05:01;14.36;71.81
69335;SHT31;56477;52.742;15.242;2023-03-23T17:07:27;14.28;72.14
69335;SHT31;56477;52.742;15.242;2023-03-23T17:09:54;14.21;71.85
69335;SHT31;56477;52.742;15.242;2023-03-23T17:12:20;14.33;70.36
69335;SHT31;56477;52.742;15.242;2023-03-23T17:14:46;14.26;70.30
69335;SHT31;56477;52.742;15.242;2023-03-23T17:17:12;14.33;70.26
69335;SHT31;56477;52.742;15.242;2023-03-23T17:19:38;14.19;71.35
69335;SHT31;56477;52.742;15.242;2023-03-23T17:22:04;14.12;71.54
69335;SHT31;56477;52.742;15.242;2023-03-23T17:24:30;14.08;71.70
69335;SHT31;56477;52.742;15.242;2023-03-23T17:26:56;14.07;71.20
69335;SHT31;56477;52.742;15.242;2023-03-23T17:29:23;14.00;71.62
69335;SHT31;56477;52.742;15.242;2023-03-23T17:31:48;13.89;71.90